Lemberg, Canada
Current Conditions -  °F | °C
As of 8:00 AM on Saturday 25 Oct 2014 (Local Time) from CYQV Reporting Station
Clear Clear  
Wind Chill: 25°   Ceiling: Unl
Heat Index: 34°   Visibility: 9mi
Dew Point: 28°   Wind: 12mph
Humidity: 81%   Direction: 240°WSW
Pressure: 30"   Gusts: NA
Location:  50.73°N, 103.2°W
Report Text: CYQV 251400Z AUTO 24010KT 9SM CLR 01/M02 A3000 RMK SLP180
Loading
Personal Weather Stations






























Interactive Weather Map
Tropical Storm Tracking
New forecast layout! Learn more

10-Day Weather Forecast

Advertisements
Track Severe Weather on mobile